sensor_id;sensor_type;location;lat;lon;timestamp;pressure;altitude;pressure_sealevel;temperature;humidity
10618;BME280;5356;43.526;26.534;2023-05-14T00:01:30;99801.16;;;12.76;70.85
10618;BME280;5356;43.526;26.534;2023-05-14T00:03:56;99801.94;;;12.84;70.93
10618;BME280;5356;43.526;26.534;2023-05-14T00:06:21;99801.75;;;12.85;70.76
10618;BME280;5356;43.526;26.534;2023-05-14T00:08:46;99795.41;;;12.79;70.64
10618;BME280;5356;43.526;26.534;2023-05-14T00:11:12;99784.38;;;12.69;71.32
10618;BME280;5356;43.526;26.534;2023-05-14T00:13:37;99785.84;;;12.65;71.60
10618;BME280;5356;43.526;26.534;2023-05-14T00:16:03;99799.06;;;12.60;71.94
10618;BME280;5356;43.526;26.534;2023-05-14T00:18:28;99805.00;;;12.62;72.00
10618;BME280;5356;43.526;26.534;2023-05-14T00:20:54;99790.59;;;12.63;71.66
10618;BME280;5356;43.526;26.534;2023-05-14T00:23:21;99789.38;;;12.59;71.42
10618;BME280;5356;43.526;26.534;2023-05-14T00:25:46;99779.38;;;12.54;71.99
10618;BME280;5356;43.526;26.534;2023-05-14T00:28:12;99782.84;;;12.55;71.92
10618;BME280;5356;43.526;26.534;2023-05-14T00:30:38;99780.72;;;12.64;71.65
10618;BME280;5356;43.526;26.534;2023-05-14T00:33:04;99779.47;;;12.66;71.53
10618;BME280;5356;43.526;26.534;2023-05-14T00:35:30;99786.69;;;12.66;71.71
10618;BME280;5356;43.526;26.534;2023-05-14T00:37:55;99782.59;;;12.63;72.09
10618;BME280;5356;43.526;26.534;2023-05-14T00:40:24;99778.69;;;12.59;71.57
10618;BME280;5356;43.526;26.534;2023-05-14T00:42:51;99777.56;;;12.48;72.15
10618;BME280;5356;43.526;26.534;2023-05-14T00:45:16;99768.72;;;12.48;72.31
10618;BME280;5356;43.526;26.534;2023-05-14T00:47:43;99768.41;;;12.38;72.21
10618;BME280;5356;43.526;26.534;2023-05-14T00:50:09;99770.53;;;12.29;72.80
10618;BME280;5356;43.526;26.534;2023-05-14T00:52:36;99774.06;;;12.16;73.38
10618;BME280;5356;43.526;26.534;2023-05-14T00:55:06;99775.38;;;12.07;74.65
10618;BME280;5356;43.526;26.534;2023-05-14T00:57:35;99773.91;;;12.11;74.86
10618;BME280;5356;43.526;26.534;2023-05-14T01:00:02;99769.78;;;12.15;74.72
10618;BME280;5356;43.526;26.534;2023-05-14T01:02:28;99761.09;;;12.20;74.34
10618;BME280;5356;43.526;26.534;2023-05-14T01:04:54;99763.13;;;12.24;74.39
10618;BME280;5356;43.526;26.534;2023-05-14T01:10:10;99760.38;;;12.38;73.91
10618;BME280;5356;43.526;26.534;2023-05-14T01:12:39;99756.22;;;12.42;73.56
10618;BME280;5356;43.526;26.534;2023-05-14T01:15:12;99756.72;;;12.32;73.62
10618;BME280;5356;43.526;26.534;2023-05-14T01:17:45;99763.31;;;12.29;74.38
10618;BME280;5356;43.526;26.534;2023-05-14T01:20:13;99754.69;;;12.27;74.40
10618;BME280;5356;43.526;26.534;2023-05-14T01:22:39;99753.88;;;12.27;74.58
10618;BME280;5356;43.526;26.534;2023-05-14T01:25:05;99756.56;;;12.27;74.11
10618;BME280;5356;43.526;26.534;2023-05-14T01:28:08;99756.16;;;12.23;74.86
10618;BME280;5356;43.526;26.534;2023-05-14T01:30:47;99765.13;;;12.04;75.23
10618;BME280;5356;43.526;26.534;2023-05-14T01:33:16;99759.25;;;11.88;76.49
10618;BME280;5356;43.526;26.534;2023-05-14T01:35:45;99759.31;;;11.75;77.54
10618;BME280;5356;43.526;26.534;2023-05-14T01:38:11;99752.91;;;11.76;77.52
10618;BME280;5356;43.526;26.534;2023-05-14T01:40:38;99753.09;;;11.81;77.69
10618;BME280;5356;43.526;26.534;2023-05-14T01:43:04;99759.25;;;11.88;77.00
10618;BME280;5356;43.526;26.534;2023-05-14T01:45:34;99765.63;;;11.81;77.54
10618;BME280;5356;43.526;26.534;2023-05-14T01:48:00;99760.31;;;11.74;77.66
10618;BME280;5356;43.526;26.534;2023-05-14T01:50:25;99755.59;;;11.76;78.39
10618;BME280;5356;43.526;26.534;2023-05-14T01:52:51;99755.34;;;11.84;78.89
10618;BME280;5356;43.526;26.534;2023-05-14T01:55:23;99755.06;;;11.99;78.02
10618;BME280;5356;43.526;26.534;2023-05-14T01:57:49;99756.88;;;12.12;77.50
10618;BME280;5356;43.526;26.534;2023-05-14T02:00:15;99759.31;;;12.13;77.54
10618;BME280;5356;43.526;26.534;2023-05-14T02:02:41;99756.38;;;12.22;77.22
10618;BME280;5356;43.526;26.534;2023-05-14T02:05:08;99753.28;;;12.25;77.46
10618;BME280;5356;43.526;26.534;2023-05-14T02:07:34;99756.56;;;12.27;77.25
10618;BME280;5356;43.526;26.534;2023-05-14T02:10:00;99762.50;;;12.29;77.39
10618;BME280;5356;43.526;26.534;2023-05-14T02:12:25;99766.16;;;12.34;77.10
10618;BME280;5356;43.526;26.534;2023-05-14T02:14:50;99769.22;;;12.38;76.89
10618;BME280;5356;43.526;26.534;2023-05-14T02:17:16;99774.63;;;12.31;77.33
10618;BME280;5356;43.526;26.534;2023-05-14T02:19:43;99769.66;;;12.28;77.15
10618;BME280;5356;43.526;26.534;2023-05-14T02:22:08;99764.19;;;12.23;77.81
10618;BME280;5356;43.526;26.534;2023-05-14T02:24:34;99759.44;;;12.25;77.40
10618;BME280;5356;43.526;26.534;2023-05-14T02:27:00;99752.25;;;12.26;77.38
10618;BME280;5356;43.526;26.534;2023-05-14T02:29:26;99752.25;;;12.26;77.55
10618;BME280;5356;43.526;26.534;2023-05-14T02:31:51;99750.66;;;12.18;77.63
10618;BME280;5356;43.526;26.534;2023-05-14T02:34:17;99759.59;;;11.99;78.73
10618;BME280;5356;43.526;26.534;2023-05-14T02:36:42;99757.22;;;11.77;79.43
10618;BME280;5356;43.526;26.534;2023-05-14T02:39:08;99753.81;;;11.63;81.25
10618;BME280;5356;43.526;26.534;2023-05-14T02:41:33;99747.63;;;11.63;81.47
10618;BME280;5356;43.526;26.534;2023-05-14T02:43:59;99744.53;;;11.73;80.42
10618;BME280;5356;43.526;26.534;2023-05-14T02:46:24;99751.72;;;11.72;80.36
10618;BME280;5356;43.526;26.534;2023-05-14T02:48:50;99754.59;;;11.71;80.49
10618;BME280;5356;43.526;26.534;2023-05-14T02:51:15;99759.88;;;11.77;80.51
10618;BME280;5356;43.526;26.534;2023-05-14T02:53:41;99748.78;;;11.80;79.99
10618;BME280;5356;43.526;26.534;2023-05-14T02:56:07;99740.97;;;11.85;79.66
10618;BME280;5356;43.526;26.534;2023-05-14T02:58:32;99749.59;;;11.87;80.02
10618;BME280;5356;43.526;26.534;2023-05-14T03:00:58;99755.75;;;11.88;79.80
10618;BME280;5356;43.526;26.534;2023-05-14T03:03:23;99754.50;;;11.90;80.17
10618;BME280;5356;43.526;26.534;2023-05-14T03:05:49;99750.41;;;11.95;79.80
10618;BME280;5356;43.526;26.534;2023-05-14T03:08:15;99753.03;;;12.01;79.63
10618;BME280;5356;43.526;26.534;2023-05-14T03:10:40;99753.84;;;12.02;79.82
10618;BME280;5356;43.526;26.534;2023-05-14T03:13:06;99760.22;;;12.01;79.92
10618;BME280;5356;43.526;26.534;2023-05-14T03:15:31;99758.75;;;12.05;80.01
10618;BME280;5356;43.526;26.534;2023-05-14T03:17:57;99759.56;;;12.05;79.73
10618;BME280;5356;43.526;26.534;2023-05-14T03:20:25;99763.06;;;12.06;80.02
10618;BME280;5356;43.526;26.534;2023-05-14T03:22:51;99760.16;;;12.07;79.91
10618;BME280;5356;43.526;26.534;2023-05-14T03:25:16;99773.31;;;12.09;79.91
10618;BME280;5356;43.526;26.534;2023-05-14T03:27:41;99770.41;;;12.10;80.13
10618;BME280;5356;43.526;26.534;2023-05-14T03:30:07;99777.56;;;12.17;79.67
10618;BME280;5356;43.526;26.534;2023-05-14T03:32:33;99777.38;;;12.18;79.60
10618;BME280;5356;43.526;26.534;2023-05-14T03:34:58;99777.38;;;12.18;80.01
10618;BME280;5356;43.526;26.534;2023-05-14T03:37:24;99768.69;;;12.23;80.40
10618;BME280;5356;43.526;26.534;2023-05-14T03:39:49;99777.09;;;12.26;80.77
10618;BME280;5356;43.526;26.534;2023-05-14T03:42:15;99772.09;;;12.36;80.28
10618;BME280;5356;43.526;26.534;2023-05-14T03:44:40;99781.31;;;12.41;80.18
10618;BME280;5356;43.526;26.534;2023-05-14T03:47:06;99783.94;;;12.47;80.04
10618;BME280;5356;43.526;26.534;2023-05-14T03:49:31;99770.84;;;12.39;79.82
10618;BME280;5356;43.526;26.534;2023-05-14T03:51:57;99773.56;;;12.32;81.00
10618;BME280;5356;43.526;26.534;2023-05-14T03:54:24;99778.31;;;12.30;81.55
10618;BME280;5356;43.526;26.534;2023-05-14T03:56:49;99770.28;;;12.30;81.73
10618;BME280;5356;43.526;26.534;2023-05-14T03:59:15;99776.44;;;12.31;82.29
10618;BME280;5356;43.526;26.534;2023-05-14T04:01:40;99773.78;;;12.31;82.96
10618;BME280;5356;43.526;26.534;2023-05-14T04:04:06;99778.66;;;12.41;82.71
10618;BME280;5356;43.526;26.534;2023-05-14T04:06:32;99779.56;;;12.53;82.62
10618;BME280;5356;43.526;26.534;2023-05-14T04:08:57;99781.97;;;12.61;82.35
10618;BME280;5356;43.526;26.534;2023-05-14T04:11:23;99789.72;;;12.69;82.07
10618;BME280;5356;43.526;26.534;2023-05-14T04:13:48;99791.47;;;12.82;81.68
10618;BME280;5356;43.526;26.534;2023-05-14T04:16:13;99801.44;;;12.93;81.61
10618;BME280;5356;43.526;26.534;2023-05-14T04:18:39;99798.56;;;12.95;81.07
10618;BME280;5356;43.526;26.534;2023-05-14T04:21:04;99798.19;;;12.91;81.73
10618;BME280;5356;43.526;26.534;2023-05-14T04:23:30;99793.66;;;12.92;82.23
10618;BME280;5356;43.526;26.534;2023-05-14T04:25:58;99808.00;;;12.97;82.56
10618;BME280;5356;43.526;26.534;2023-05-14T04:28:24;99805.03;;;13.06;82.42
10618;BME280;5356;43.526;26.534;2023-05-14T04:30:50;99810.75;;;13.09;82.51
10618;BME280;5356;43.526;26.534;2023-05-14T04:33:16;99797.72;;;13.19;82.27
10618;BME280;5356;43.526;26.534;2023-05-14T04:35:43;99804.03;;;13.25;82.48
10618;BME280;5356;43.526;26.534;2023-05-14T04:38:09;99785.00;;;13.33;81.87
10618;BME280;5356;43.526;26.534;2023-05-14T04:40:35;99785.00;;;13.33;82.50
10618;BME280;5356;43.526;26.534;2023-05-14T04:43:01;99789.50;;;13.39;82.82
10618;BME280;5356;43.526;26.534;2023-05-14T04:45:27;99786.13;;;13.44;83.10
10618;BME280;5356;43.526;26.534;2023-05-14T04:47:52;99779.06;;;13.50;82.95
10618;BME280;5356;43.526;26.534;2023-05-14T04:50:18;99776.44;;;13.61;82.69
10618;BME280;5356;43.526;26.534;2023-05-14T04:52:43;99774.53;;;13.68;82.33
10618;BME280;5356;43.526;26.534;2023-05-14T04:55:09;99779.56;;;13.77;82.03
10618;BME280;5356;43.526;26.534;2023-05-14T04:57:34;99762.31;;;13.73;81.72
10618;BME280;5356;43.526;26.534;2023-05-14T05:00:00;99765.50;;;13.81;81.95
10618;BME280;5356;43.526;26.534;2023-05-14T05:02:25;99771.81;;;13.87;81.86
10618;BME280;5356;43.526;26.534;2023-05-14T05:04:51;99773.59;;;13.93;82.10
10618;BME280;5356;43.526;26.534;2023-05-14T05:07:16;99779.66;;;14.00;82.67
10618;BME280;5356;43.526;26.534;2023-05-14T05:09:42;99778.53;;;14.08;82.83
10618;BME280;5356;43.526;26.534;2023-05-14T05:12:08;99781.72;;;14.17;82.59
10618;BME280;5356;43.526;26.534;2023-05-14T05:14:34;99780.56;;;14.24;82.51
10618;BME280;5356;43.526;26.534;2023-05-14T05:16:59;99771.50;;;14.37;82.44
10618;BME280;5356;43.526;26.534;2023-05-14T05:19:25;99764.53;;;14.48;82.62
10618;BME280;5356;43.526;26.534;2023-05-14T05:21:50;99764.56;;;14.59;82.41
10618;BME280;5356;43.526;26.534;2023-05-14T05:24:16;99769.47;;;14.74;82.45
10618;BME280;5356;43.526;26.534;2023-05-14T05:26:41;99777.09;;;14.89;80.94
10618;BME280;5356;43.526;26.534;2023-05-14T05:29:07;99774.88;;;14.98;80.61
10618;BME280;5356;43.526;26.534;2023-05-14T05:31:32;99783.59;;;15.17;79.40
10618;BME280;5356;43.526;26.534;2023-05-14T05:33:59;99782.75;;;15.28;79.42
10618;BME280;5356;43.526;26.534;2023-05-14T05:36:25;99774.59;;;15.35;78.76
10618;BME280;5356;43.526;26.534;2023-05-14T05:38:51;99774.56;;;15.46;79.11
10618;BME280;5356;43.526;26.534;2023-05-14T05:41:16;99776.53;;;15.63;77.73
10618;BME280;5356;43.526;26.534;2023-05-14T05:43:41;99766.69;;;15.80;77.93
10618;BME280;5356;43.526;26.534;2023-05-14T05:46:07;99770.03;;;15.87;76.71
10618;BME280;5356;43.526;26.534;2023-05-14T05:48:33;99761.47;;;15.90;75.44
10618;BME280;5356;43.526;26.534;2023-05-14T05:50:58;99766.94;;;15.96;73.09
10618;BME280;5356;43.526;26.534;2023-05-14T05:53:24;99778.00;;;16.11;73.52
10618;BME280;5356;43.526;26.534;2023-05-14T05:55:49;99780.63;;;16.23;72.87
10618;BME280;5356;43.526;26.534;2023-05-14T05:58:17;99781.28;;;16.30;71.14
10618;BME280;5356;43.526;26.534;2023-05-14T06:00:43;99784.06;;;16.35;69.88
10618;BME280;5356;43.526;26.534;2023-05-14T06:03:09;99780.81;;;16.50;69.58
10618;BME280;5356;43.526;26.534;2023-05-14T06:05:35;99794.53;;;16.65;68.51
10618;BME280;5356;43.526;26.534;2023-05-14T06:08:01;99791.78;;;16.77;67.84
10618;BME280;5356;43.526;26.534;2023-05-14T06:10:26;99781.41;;;16.86;66.95
10618;BME280;5356;43.526;26.534;2023-05-14T06:12:52;99795.03;;;16.96;66.82
10618;BME280;5356;43.526;26.534;2023-05-14T06:15:17;99805.44;;;17.09;66.27
10618;BME280;5356;43.526;26.534;2023-05-14T06:17:43;99796.13;;;17.17;65.13
10618;BME280;5356;43.526;26.534;2023-05-14T06:20:09;99808.47;;;17.35;64.84
10618;BME280;5356;43.526;26.534;2023-05-14T06:22:34;99801.84;;;17.42;64.63
10618;BME280;5356;43.526;26.534;2023-05-14T06:25:00;99804.34;;;17.49;63.66
10618;BME280;5356;43.526;26.534;2023-05-14T06:27:25;99808.13;;;17.48;61.78
10618;BME280;5356;43.526;26.534;2023-05-14T06:29:50;99813.94;;;17.40;59.78
10618;BME280;5356;43.526;26.534;2023-05-14T06:32:16;99812.06;;;17.40;60.04
10618;BME280;5356;43.526;26.534;2023-05-14T06:34:42;99821.66;;;17.53;59.80
10618;BME280;5356;43.526;26.534;2023-05-14T06:37:08;99821.91;;;17.51;58.84
10618;BME280;5356;43.526;26.534;2023-05-14T06:39:34;99821.84;;;17.68;58.41
10618;BME280;5356;43.526;26.534;2023-05-14T06:42:00;99825.19;;;17.76;58.23
10618;BME280;5356;43.526;26.534;2023-05-14T06:44:25;99830.91;;;17.79;56.34
10618;BME280;5356;43.526;26.534;2023-05-14T06:46:51;99826.97;;;17.87;56.14
10618;BME280;5356;43.526;26.534;2023-05-14T06:49:17;99826.69;;;17.88;55.91
10618;BME280;5356;43.526;26.534;2023-05-14T06:51:42;99835.72;;;17.99;55.15
10618;BME280;5356;43.526;26.534;2023-05-14T06:54:08;99834.53;;;18.12;55.23
10618;BME280;5356;43.526;26.534;2023-05-14T06:56:33;99834.47;;;18.34;55.84
10618;BME280;5356;43.526;26.534;2023-05-14T06:58:58;99830.78;;;18.45;55.08
10618;BME280;5356;43.526;26.534;2023-05-14T07:01:24;99826.09;;;18.62;54.50
10618;BME280;5356;43.526;26.534;2023-05-14T07:03:50;99822.38;;;18.69;53.43
10618;BME280;5356;43.526;26.534;2023-05-14T07:06:15;99807.28;;;18.73;53.22
10618;BME280;5356;43.526;26.534;2023-05-14T07:08:42;99814.09;;;18.75;53.24
10618;BME280;5356;43.526;26.534;2023-05-14T07:11:10;99806.81;;;18.76;52.33
10618;BME280;5356;43.526;26.534;2023-05-14T07:13:37;99817.28;;;18.72;51.90
10618;BME280;5356;43.526;26.534;2023-05-14T07:16:03;99807.38;;;18.78;51.74
10618;BME280;5356;43.526;26.534;2023-05-14T07:18:28;99802.59;;;18.90;52.01
10618;BME280;5356;43.526;26.534;2023-05-14T07:20:54;99807.00;;;19.01;51.94
10618;BME280;5356;43.526;26.534;2023-05-14T07:23:19;99811.94;;;19.15;52.16
10618;BME280;5356;43.526;26.534;2023-05-14T07:25:44;99814.66;;;19.15;51.22
10618;BME280;5356;43.526;26.534;2023-05-14T07:28:10;99814.59;;;19.10;51.28
10618;BME280;5356;43.526;26.534;2023-05-14T07:30:36;99814.16;;;19.23;51.52
10618;BME280;5356;43.526;26.534;2023-05-14T07:33:01;99807.16;;;19.27;50.62
10618;BME280;5356;43.526;26.534;2023-05-14T07:35:27;99803.91;;;19.30;50.38
10618;BME280;5356;43.526;26.534;2023-05-14T07:37:52;99805.28;;;19.33;49.40
10618;BME280;5356;43.526;26.534;2023-05-14T07:40:18;99802.69;;;19.48;50.71
10618;BME280;5356;43.526;26.534;2023-05-14T07:42:43;99807.31;;;19.58;50.15
10618;BME280;5356;43.526;26.534;2023-05-14T07:52:02;99810.66;;;19.80;47.27
10618;BME280;5356;43.526;26.534;2023-05-14T07:55:02;99796.34;;;19.80;47.30
10618;BME280;5356;43.526;26.534;2023-05-14T07:58:11;99800.44;;;19.92;47.85
10618;BME280;5356;43.526;26.534;2023-05-14T08:03:57;99790.09;;;19.74;45.33
10618;BME280;5356;43.526;26.534;2023-05-14T08:10:15;99794.50;;;19.90;46.41
10618;BME280;5356;43.526;26.534;2023-05-14T08:16:31;99808.81;;;19.91;46.28
10618;BME280;5356;43.526;26.534;2023-05-14T08:19:29;99814.53;;;20.00;46.00
10618;BME280;5356;43.526;26.534;2023-05-14T08:22:11;99811.84;;;20.05;45.40
10618;BME280;5356;43.526;26.534;2023-05-14T08:25:09;99811.31;;;20.08;45.16
10618;BME280;5356;43.526;26.534;2023-05-14T08:31:22;99814.56;;;20.15;45.47
10618;BME280;5356;43.526;26.534;2023-05-14T08:34:08;99800.50;;;20.23;46.22
10618;BME280;5356;43.526;26.534;2023-05-14T08:40:07;99796.97;;;20.23;45.94
10618;BME280;5356;43.526;26.534;2023-05-14T08:42:37;99792.91;;;20.20;45.85
10618;BME280;5356;43.526;26.534;2023-05-14T08:45:40;99799.44;;;20.19;45.44
10618;BME280;5356;43.526;26.534;2023-05-14T08:48:42;99797.25;;;20.16;45.90
10618;BME280;5356;43.526;26.534;2023-05-14T08:51:38;99802.13;;;20.19;46.41
10618;BME280;5356;43.526;26.534;2023-05-14T08:54:23;99800.50;;;20.13;45.58
10618;BME280;5356;43.526;26.534;2023-05-14T09:00:46;99807.78;;;20.17;45.18
10618;BME280;5356;43.526;26.534;2023-05-14T09:03:49;99812.41;;;20.17;45.02
10618;BME280;5356;43.526;26.534;2023-05-14T09:09:37;99807.53;;;20.19;45.23
10618;BME280;5356;43.526;26.534;2023-05-14T09:12:40;99806.75;;;20.39;45.64
10618;BME280;5356;43.526;26.534;2023-05-14T09:21:27;99785.09;;;20.39;45.47
10618;BME280;5356;43.526;26.534;2023-05-14T09:23:53;99789.16;;;20.31;45.19
10618;BME280;5356;43.526;26.534;2023-05-14T09:26:25;99788.06;;;20.32;45.47
10618;BME280;5356;43.526;26.534;2023-05-14T09:28:54;99783.19;;;20.29;45.17
10618;BME280;5356;43.526;26.534;2023-05-14T09:31:20;99784.84;;;20.30;44.83
10618;BME280;5356;43.526;26.534;2023-05-14T09:33:52;99781.56;;;20.23;44.96
10618;BME280;5356;43.526;26.534;2023-05-14T09:36:18;99772.91;;;20.31;45.23
10618;BME280;5356;43.526;26.534;2023-05-14T09:38:44;99783.47;;;20.33;45.14
10618;BME280;5356;43.526;26.534;2023-05-14T09:41:10;99776.97;;;20.29;45.22
10618;BME280;5356;43.526;26.534;2023-05-14T09:43:35;99781.84;;;20.37;45.37
10618;BME280;5356;43.526;26.534;2023-05-14T09:46:01;99778.34;;;20.36;45.41
10618;BME280;5356;43.526;26.534;2023-05-14T09:48:26;99774.28;;;20.39;45.59
10618;BME280;5356;43.526;26.534;2023-05-14T09:50:52;99773.72;;;20.27;45.33
10618;BME280;5356;43.526;26.534;2023-05-14T09:53:18;99782.66;;;20.37;45.59
10618;BME280;5356;43.526;26.534;2023-05-14T09:55:44;99775.91;;;20.50;45.58
10618;BME280;5356;43.526;26.534;2023-05-14T09:58:10;99777.00;;;20.59;46.09
10618;BME280;5356;43.526;26.534;2023-05-14T10:00:36;99764.03;;;20.61;45.79
10618;BME280;5356;43.526;26.534;2023-05-14T10:03:06;99772.16;;;20.61;46.12
10618;BME280;5356;43.526;26.534;2023-05-14T10:05:35;99777.81;;;20.65;46.12
10618;BME280;5356;43.526;26.534;2023-05-14T10:08:21;99778.38;;;20.57;46.07
10618;BME280;5356;43.526;26.534;2023-05-14T10:10:50;99776.47;;;20.73;46.83
10618;BME280;5356;43.526;26.534;2023-05-14T10:13:19;99772.94;;;20.82;47.16
10618;BME280;5356;43.526;26.534;2023-05-14T10:16:14;99778.34;;;20.93;46.58
10618;BME280;5356;43.526;26.534;2023-05-14T10:18:41;99784.28;;;21.00;46.32
10618;BME280;5356;43.526;26.534;2023-05-14T10:21:08;99787.78;;;21.05;45.87
10618;BME280;5356;43.526;26.534;2023-05-14T10:23:36;99789.69;;;21.05;46.03
10618;BME280;5356;43.526;26.534;2023-05-14T10:26:02;99787.53;;;20.97;45.78
10618;BME280;5356;43.526;26.534;2023-05-14T10:28:29;99777.22;;;21.09;46.03
10618;BME280;5356;43.526;26.534;2023-05-14T10:30:55;99777.75;;;21.06;45.32
10618;BME280;5356;43.526;26.534;2023-05-14T10:33:20;99780.47;;;21.11;45.06
10618;BME280;5356;43.526;26.534;2023-05-14T10:36:06;99773.66;;;21.24;45.35
10618;BME280;5356;43.526;26.534;2023-05-14T10:38:36;99766.34;;;21.29;45.45
10618;BME280;5356;43.526;26.534;2023-05-14T10:41:03;99758.72;;;21.37;45.16
10618;BME280;5356;43.526;26.534;2023-05-14T10:43:33;99760.34;;;21.33;44.67
10618;BME280;5356;43.526;26.534;2023-05-14T10:46:00;99752.00;;;21.24;43.88
10618;BME280;5356;43.526;26.534;2023-05-14T10:48:27;99753.03;;;21.28;44.17
10618;BME280;5356;43.526;26.534;2023-05-14T10:50:54;99757.91;;;21.31;44.12
10618;BME280;5356;43.526;26.534;2023-05-14T10:53:33;99748.72;;;21.27;44.31
10618;BME280;5356;43.526;26.534;2023-05-14T10:56:06;99733.25;;;21.33;44.48
10618;BME280;5356;43.526;26.534;2023-05-14T10:58:36;99734.38;;;21.26;44.35
10618;BME280;5356;43.526;26.534;2023-05-14T11:01:02;99725.16;;;21.17;44.51
10618;BME280;5356;43.526;26.534;2023-05-14T11:03:29;99725.75;;;21.09;45.02
10618;BME280;5356;43.526;26.534;2023-05-14T11:05:56;99713.84;;;21.05;44.84
10618;BME280;5356;43.526;26.534;2023-05-14T11:08:24;99708.69;;;21.03;45.08
10618;BME280;5356;43.526;26.534;2023-05-14T11:10:51;99708.16;;;20.96;45.32
10618;BME280;5356;43.526;26.534;2023-05-14T11:13:17;99704.13;;;20.94;44.80
10618;BME280;5356;43.526;26.534;2023-05-14T11:15:44;99695.75;;;20.85;44.91
10618;BME280;5356;43.526;26.534;2023-05-14T11:18:12;99690.88;;;20.82;45.04
10618;BME280;5356;43.526;26.534;2023-05-14T11:20:38;99683.00;;;20.91;45.19
10618;BME280;5356;43.526;26.534;2023-05-14T11:23:04;99681.69;;;20.78;45.35
10618;BME280;5356;43.526;26.534;2023-05-14T11:25:31;99673.03;;;20.81;45.40
10618;BME280;5356;43.526;26.534;2023-05-14T11:27:56;99668.94;;;20.83;45.40
10618;BME280;5356;43.526;26.534;2023-05-14T11:30:25;99663.00;;;20.71;45.49
10618;BME280;5356;43.526;26.534;2023-05-14T11:32:50;99656.28;;;20.53;45.18
10618;BME280;5356;43.526;26.534;2023-05-14T11:35:16;99661.41;;;20.65;45.41
10618;BME280;5356;43.526;26.534;2023-05-14T11:37:46;99651.06;;;20.77;45.73
10618;BME280;5356;43.526;26.534;2023-05-14T11:40:14;99646.75;;;20.71;45.85
10618;BME280;5356;43.526;26.534;2023-05-14T11:42:43;99645.41;;;20.74;45.50
10618;BME280;5356;43.526;26.534;2023-05-14T11:45:12;99636.53;;;20.53;45.95
10618;BME280;5356;43.526;26.534;2023-05-14T11:47:38;99626.22;;;20.55;46.13
10618;BME280;5356;43.526;26.534;2023-05-14T11:50:05;99617.56;;;20.42;45.95
10618;BME280;5356;43.526;26.534;2023-05-14T11:52:30;99624.03;;;20.67;46.00
10618;BME280;5356;43.526;26.534;2023-05-14T11:55:01;99654.03;;;20.86;45.76
10618;BME280;5356;43.526;26.534;2023-05-14T11:57:26;99663.47;;;20.99;46.16
10618;BME280;5356;43.526;26.534;2023-05-14T11:59:55;99677.25;;;21.07;46.38
10618;BME280;5356;43.526;26.534;2023-05-14T12:02:26;99675.31;;;21.23;46.27
10618;BME280;5356;43.526;26.534;2023-05-14T12:04:53;99677.44;;;21.32;46.19
10618;BME280;5356;43.526;26.534;2023-05-14T12:07:19;99669.25;;;21.42;46.37
10618;BME280;5356;43.526;26.534;2023-05-14T12:09:46;99658.63;;;21.50;46.03
10618;BME280;5356;43.526;26.534;2023-05-14T12:12:15;99655.00;;;21.65;46.09
10618;BME280;5356;43.526;26.534;2023-05-14T12:14:42;99657.63;;;21.81;45.96
10618;BME280;5356;43.526;26.534;2023-05-14T12:17:12;99650.34;;;21.76;44.71
10618;BME280;5356;43.526;26.534;2023-05-14T12:19:39;99649.72;;;21.89;44.67
10618;BME280;5356;43.526;26.534;2023-05-14T12:22:07;99635.53;;;21.97;44.63
10618;BME280;5356;43.526;26.534;2023-05-14T12:24:32;99636.09;;;22.29;44.64
10618;BME280;5356;43.526;26.534;2023-05-14T12:27:00;99638.63;;;22.49;44.20
10618;BME280;5356;43.526;26.534;2023-05-14T12:29:28;99631.97;;;22.60;43.66
10618;BME280;5356;43.526;26.534;2023-05-14T12:31:56;99632.69;;;22.71;43.47
10618;BME280;5356;43.526;26.534;2023-05-14T12:34:26;99631.16;;;22.84;42.46
10618;BME280;5356;43.526;26.534;2023-05-14T12:36:56;99623.75;;;22.90;42.04
10618;BME280;5356;43.526;26.534;2023-05-14T12:39:22;99608.75;;;22.97;41.68
10618;BME280;5356;43.526;26.534;2023-05-14T12:41:50;99612.75;;;23.24;42.22
10618;BME280;5356;43.526;26.534;2023-05-14T12:44:18;99613.47;;;23.29;41.68
10618;BME280;5356;43.526;26.534;2023-05-14T12:46:46;99591.94;;;23.14;41.29
10618;BME280;5356;43.526;26.534;2023-05-14T12:49:12;99579.53;;;23.08;40.94
10618;BME280;5356;43.526;26.534;2023-05-14T12:51:43;99582.47;;;23.12;40.84
10618;BME280;5356;43.526;26.534;2023-05-14T12:54:13;99577.34;;;23.10;41.23
10618;BME280;5356;43.526;26.534;2023-05-14T12:56:40;99574.84;;;23.14;40.91
10618;BME280;5356;43.526;26.534;2023-05-14T12:59:09;99575.84;;;23.18;41.15
10618;BME280;5356;43.526;26.534;2023-05-14T13:01:34;99578.16;;;23.11;40.66
10618;BME280;5356;43.526;26.534;2023-05-14T13:04:01;99575.56;;;23.00;40.79
10618;BME280;5356;43.526;26.534;2023-05-14T13:06:35;99570.66;;;23.02;40.74
10618;BME280;5356;43.526;26.534;2023-05-14T13:09:01;99551.47;;;23.13;41.17
10618;BME280;5356;43.526;26.534;2023-05-14T13:11:27;99544.44;;;23.30;41.47
10618;BME280;5356;43.526;26.534;2023-05-14T13:13:57;99536.34;;;23.44;41.19
10618;BME280;5356;43.526;26.534;2023-05-14T13:16:28;99537.53;;;23.52;41.26
10618;BME280;5356;43.526;26.534;2023-05-14T13:19:02;99535.66;;;23.52;41.43
10618;BME280;5356;43.526;26.534;2023-05-14T13:21:45;99536.94;;;23.55;41.75
10618;BME280;5356;43.526;26.534;2023-05-14T13:24:13;99538.81;;;23.41;42.11
10618;BME280;5356;43.526;26.534;2023-05-14T13:26:39;99542.19;;;23.51;42.18
10618;BME280;5356;43.526;26.534;2023-05-14T13:29:09;99547.22;;;23.77;42.25
10618;BME280;5356;43.526;26.534;2023-05-14T13:31:35;99531.72;;;23.78;41.75
10618;BME280;5356;43.526;26.534;2023-05-14T13:34:04;99529.22;;;23.81;41.39
10618;BME280;5356;43.526;26.534;2023-05-14T13:36:34;99532.06;;;23.90;41.20
10618;BME280;5356;43.526;26.534;2023-05-14T13:39:05;99522.78;;;24.05;40.92
10618;BME280;5356;43.526;26.534;2023-05-14T13:41:30;99526.06;;;24.20;40.41
10618;BME280;5356;43.526;26.534;2023-05-14T13:43:59;99515.03;;;24.26;40.02
10618;BME280;5356;43.526;26.534;2023-05-14T13:46:25;99512.53;;;24.29;40.14